sensor_id;sensor_type;location;lat;lon;timestamp;P1;durP1;ratioP1;P2;durP2;ratioP2
52590;SDS011;38483;42.620;25.394;2022-09-09T00:06:08;12.03;;;6.90;;
52590;SDS011;38483;42.620;25.394;2022-09-09T00:08:58;7.77;;;7.03;;
52590;SDS011;38483;42.620;25.394;2022-09-09T00:11:37;7.90;;;7.07;;
52590;SDS011;38483;42.620;25.394;2022-09-09T00:14:08;8.20;;;6.80;;
52590;SDS011;38483;42.620;25.394;2022-09-09T00:16:46;7.33;;;6.63;;
52590;SDS011;38483;42.620;25.394;2022-09-09T00:19:22;9.37;;;6.73;;
52590;SDS011;38483;42.620;25.394;2022-09-09T00:30:00;6.50;;;5.30;;
52590;SDS011;38483;42.620;25.394;2022-09-09T00:32:58;8.33;;;5.47;;
52590;SDS011;38483;42.620;25.394;2022-09-09T00:35:28;6.40;;;5.40;;
52590;SDS011;38483;42.620;25.394;2022-09-09T00:38:10;9.73;;;5.50;;
52590;SDS011;38483;42.620;25.394;2022-09-09T00:40:50;7.77;;;5.20;;
52590;SDS011;38483;42.620;25.394;2022-09-09T00:43:27;7.27;;;5.90;;
52590;SDS011;38483;42.620;25.394;2022-09-09T00:48:44;7.17;;;5.60;;
52590;SDS011;38483;42.620;25.394;2022-09-09T00:57:07;7.90;;;6.90;;
52590;SDS011;38483;42.620;25.394;2022-09-09T01:00:17;8.80;;;7.47;;
52590;SDS011;38483;42.620;25.394;2022-09-09T01:02:59;8.00;;;7.30;;
52590;SDS011;38483;42.620;25.394;2022-09-09T01:11:21;8.93;;;7.83;;
52590;SDS011;38483;42.620;25.394;2022-09-09T01:17:08;9.30;;;7.97;;
52590;SDS011;38483;42.620;25.394;2022-09-09T01:22:35;7.80;;;7.00;;
52590;SDS011;38483;42.620;25.394;2022-09-09T01:28:24;8.93;;;7.80;;
52590;SDS011;38483;42.620;25.394;2022-09-09T01:30:58;8.70;;;7.90;;
52590;SDS011;38483;42.620;25.394;2022-09-09T01:33:31;9.17;;;7.27;;
52590;SDS011;38483;42.620;25.394;2022-09-09T01:36:21;9.00;;;7.83;;
52590;SDS011;38483;42.620;25.394;2022-09-09T01:38:56;7.47;;;6.57;;
52590;SDS011;38483;42.620;25.394;2022-09-09T01:41:23;9.83;;;7.10;;
52590;SDS011;38483;42.620;25.394;2022-09-09T01:44:11;9.37;;;6.80;;
52590;SDS011;38483;42.620;25.394;2022-09-09T01:46:42;8.97;;;7.40;;
52590;SDS011;38483;42.620;25.394;2022-09-09T01:49:14;7.33;;;6.50;;
52590;SDS011;38483;42.620;25.394;2022-09-09T01:51:43;8.33;;;6.80;;
52590;SDS011;38483;42.620;25.394;2022-09-09T01:54:16;8.27;;;6.33;;
52590;SDS011;38483;42.620;25.394;2022-09-09T01:59:21;7.33;;;6.27;;
52590;SDS011;38483;42.620;25.394;2022-09-09T02:07:54;8.07;;;7.37;;
52590;SDS011;38483;42.620;25.394;2022-09-09T02:10:28;7.60;;;6.90;;
52590;SDS011;38483;42.620;25.394;2022-09-09T02:13:18;7.40;;;5.97;;
52590;SDS011;38483;42.620;25.394;2022-09-09T02:15:59;6.40;;;5.80;;
52590;SDS011;38483;42.620;25.394;2022-09-09T02:18:44;6.90;;;6.20;;
52590;SDS011;38483;42.620;25.394;2022-09-09T02:21:20;10.00;;;6.70;;
52590;SDS011;38483;42.620;25.394;2022-09-09T02:23:49;8.90;;;7.27;;
52590;SDS011;38483;42.620;25.394;2022-09-09T02:26:19;9.90;;;7.20;;
52590;SDS011;38483;42.620;25.394;2022-09-09T02:28:57;6.47;;;5.87;;
52590;SDS011;38483;42.620;25.394;2022-09-09T02:31:27;8.37;;;6.53;;
52590;SDS011;38483;42.620;25.394;2022-09-09T02:34:00;6.67;;;6.00;;
52590;SDS011;38483;42.620;25.394;2022-09-09T02:36:31;10.23;;;7.63;;
52590;SDS011;38483;42.620;25.394;2022-09-09T02:39:00;10.03;;;6.87;;
52590;SDS011;38483;42.620;25.394;2022-09-09T02:41:35;7.37;;;6.50;;
52590;SDS011;38483;42.620;25.394;2022-09-09T02:44:12;8.07;;;6.87;;
52590;SDS011;38483;42.620;25.394;2022-09-09T02:52:26;10.30;;;8.13;;
52590;SDS011;38483;42.620;25.394;2022-09-09T02:55:17;8.80;;;8.00;;
52590;SDS011;38483;42.620;25.394;2022-09-09T02:57:59;8.43;;;6.57;;
52590;SDS011;38483;42.620;25.394;2022-09-09T03:00:28;9.77;;;6.40;;
52590;SDS011;38483;42.620;25.394;2022-09-09T03:02:59;8.17;;;7.43;;
52590;SDS011;38483;42.620;25.394;2022-09-09T03:05:27;9.00;;;7.27;;
52590;SDS011;38483;42.620;25.394;2022-09-09T03:07:54;11.63;;;7.37;;
52590;SDS011;38483;42.620;25.394;2022-09-09T03:10:21;8.57;;;7.73;;
52590;SDS011;38483;42.620;25.394;2022-09-09T03:12:48;8.73;;;7.67;;
52590;SDS011;38483;42.620;25.394;2022-09-09T03:15:17;9.63;;;7.77;;
52590;SDS011;38483;42.620;25.394;2022-09-09T03:17:44;8.83;;;7.90;;
52590;SDS011;38483;42.620;25.394;2022-09-09T03:20:11;10.00;;;8.23;;
52590;SDS011;38483;42.620;25.394;2022-09-09T03:22:38;9.10;;;8.30;;
52590;SDS011;38483;42.620;25.394;2022-09-09T03:25:05;8.63;;;7.83;;
52590;SDS011;38483;42.620;25.394;2022-09-09T03:27:36;9.80;;;8.10;;
52590;SDS011;38483;42.620;25.394;2022-09-09T03:30:04;9.80;;;7.90;;
52590;SDS011;38483;42.620;25.394;2022-09-09T03:32:31;10.50;;;8.37;;
52590;SDS011;38483;42.620;25.394;2022-09-09T03:34:58;10.30;;;8.10;;
52590;SDS011;38483;42.620;25.394;2022-09-09T03:37:25;8.73;;;7.60;;
52590;SDS011;38483;42.620;25.394;2022-09-09T03:39:53;8.77;;;7.43;;
52590;SDS011;38483;42.620;25.394;2022-09-09T03:42:22;10.03;;;7.60;;
52590;SDS011;38483;42.620;25.394;2022-09-09T03:44:52;8.10;;;7.27;;
52590;SDS011;38483;42.620;25.394;2022-09-09T03:47:22;8.13;;;6.83;;
52590;SDS011;38483;42.620;25.394;2022-09-09T03:49:54;8.13;;;7.33;;
52590;SDS011;38483;42.620;25.394;2022-09-09T03:52:21;8.13;;;7.33;;
52590;SDS011;38483;42.620;25.394;2022-09-09T03:54:52;8.63;;;6.37;;
52590;SDS011;38483;42.620;25.394;2022-09-09T03:57:20;9.00;;;6.87;;
52590;SDS011;38483;42.620;25.394;2022-09-09T03:59:49;9.97;;;6.77;;
52590;SDS011;38483;42.620;25.394;2022-09-09T04:02:17;8.73;;;7.30;;
52590;SDS011;38483;42.620;25.394;2022-09-09T04:04:44;8.27;;;6.43;;
52590;SDS011;38483;42.620;25.394;2022-09-09T04:07:11;9.23;;;7.07;;
52590;SDS011;38483;42.620;25.394;2022-09-09T04:09:39;8.73;;;6.93;;
52590;SDS011;38483;42.620;25.394;2022-09-09T04:12:06;9.50;;;7.70;;
52590;SDS011;38483;42.620;25.394;2022-09-09T04:14:34;12.20;;;7.77;;
52590;SDS011;38483;42.620;25.394;2022-09-09T04:17:03;8.03;;;7.23;;
52590;SDS011;38483;42.620;25.394;2022-09-09T04:19:33;8.87;;;6.50;;
52590;SDS011;38483;42.620;25.394;2022-09-09T04:22:01;9.40;;;7.70;;
52590;SDS011;38483;42.620;25.394;2022-09-09T04:24:28;14.67;;;7.80;;
52590;SDS011;38483;42.620;25.394;2022-09-09T04:26:57;15.67;;;8.73;;
52590;SDS011;38483;42.620;25.394;2022-09-09T04:29:24;10.33;;;7.93;;
52590;SDS011;38483;42.620;25.394;2022-09-09T04:31:51;10.13;;;8.90;;
52590;SDS011;38483;42.620;25.394;2022-09-09T04:34:20;9.30;;;8.33;;
52590;SDS011;38483;42.620;25.394;2022-09-09T04:36:48;9.63;;;8.03;;
52590;SDS011;38483;42.620;25.394;2022-09-09T04:39:15;13.97;;;9.30;;
52590;SDS011;38483;42.620;25.394;2022-09-09T04:41:41;10.27;;;7.77;;
52590;SDS011;38483;42.620;25.394;2022-09-09T04:44:09;12.23;;;7.90;;
52590;SDS011;38483;42.620;25.394;2022-09-09T04:46:37;11.33;;;7.70;;
52590;SDS011;38483;42.620;25.394;2022-09-09T04:49:04;7.67;;;6.93;;
52590;SDS011;38483;42.620;25.394;2022-09-09T04:51:33;11.07;;;8.03;;
52590;SDS011;38483;42.620;25.394;2022-09-09T04:54:00;12.13;;;9.13;;
52590;SDS011;38483;42.620;25.394;2022-09-09T04:56:28;12.33;;;8.07;;
52590;SDS011;38483;42.620;25.394;2022-09-09T04:58:57;10.90;;;7.60;;
52590;SDS011;38483;42.620;25.394;2022-09-09T05:01:35;13.20;;;8.90;;
52590;SDS011;38483;42.620;25.394;2022-09-09T05:04:04;8.83;;;7.00;;
52590;SDS011;38483;42.620;25.394;2022-09-09T05:06:33;7.70;;;6.90;;
52590;SDS011;38483;42.620;25.394;2022-09-09T05:09:01;8.37;;;7.17;;
52590;SDS011;38483;42.620;25.394;2022-09-09T05:11:30;10.37;;;8.03;;
52590;SDS011;38483;42.620;25.394;2022-09-09T05:14:08;11.03;;;8.00;;
52590;SDS011;38483;42.620;25.394;2022-09-09T05:16:35;18.20;;;9.23;;
52590;SDS011;38483;42.620;25.394;2022-09-09T05:19:03;10.07;;;7.70;;
52590;SDS011;38483;42.620;25.394;2022-09-09T05:21:46;11.47;;;7.77;;
52590;SDS011;38483;42.620;25.394;2022-09-09T05:24:16;8.67;;;7.60;;
52590;SDS011;38483;42.620;25.394;2022-09-09T05:26:45;13.93;;;8.70;;
52590;SDS011;38483;42.620;25.394;2022-09-09T05:29:12;10.23;;;7.30;;
52590;SDS011;38483;42.620;25.394;2022-09-09T05:31:39;10.80;;;7.60;;
52590;SDS011;38483;42.620;25.394;2022-09-09T05:34:11;10.50;;;7.90;;
52590;SDS011;38483;42.620;25.394;2022-09-09T05:36:38;9.30;;;7.53;;
52590;SDS011;38483;42.620;25.394;2022-09-09T05:39:06;12.90;;;8.63;;
52590;SDS011;38483;42.620;25.394;2022-09-09T05:41:33;11.87;;;8.33;;
52590;SDS011;38483;42.620;25.394;2022-09-09T05:44:02;12.23;;;8.43;;
52590;SDS011;38483;42.620;25.394;2022-09-09T05:46:34;9.13;;;7.20;;
52590;SDS011;38483;42.620;25.394;2022-09-09T05:49:01;9.07;;;7.47;;
52590;SDS011;38483;42.620;25.394;2022-09-09T05:51:31;9.43;;;7.37;;
52590;SDS011;38483;42.620;25.394;2022-09-09T05:54:03;11.00;;;7.90;;
52590;SDS011;38483;42.620;25.394;2022-09-09T05:56:34;8.43;;;7.50;;
52590;SDS011;38483;42.620;25.394;2022-09-09T05:59:01;9.70;;;7.03;;
52590;SDS011;38483;42.620;25.394;2022-09-09T06:01:30;13.00;;;7.67;;
52590;SDS011;38483;42.620;25.394;2022-09-09T06:04:00;11.87;;;7.17;;
52590;SDS011;38483;42.620;25.394;2022-09-09T06:06:31;17.80;;;9.50;;
52590;SDS011;38483;42.620;25.394;2022-09-09T06:09:07;10.87;;;7.10;;
52590;SDS011;38483;42.620;25.394;2022-09-09T06:11:38;10.10;;;7.13;;
52590;SDS011;38483;42.620;25.394;2022-09-09T06:14:06;11.40;;;7.17;;
52590;SDS011;38483;42.620;25.394;2022-09-09T06:16:34;10.27;;;7.20;;
52590;SDS011;38483;42.620;25.394;2022-09-09T06:19:10;14.00;;;8.10;;
52590;SDS011;38483;42.620;25.394;2022-09-09T06:21:40;17.17;;;8.90;;
52590;SDS011;38483;42.620;25.394;2022-09-09T06:24:10;18.67;;;8.50;;
52590;SDS011;38483;42.620;25.394;2022-09-09T06:26:40;16.67;;;7.43;;
52590;SDS011;38483;42.620;25.394;2022-09-09T06:29:11;12.70;;;6.63;;
52590;SDS011;38483;42.620;25.394;2022-09-09T06:31:40;14.50;;;5.93;;
52590;SDS011;38483;42.620;25.394;2022-09-09T06:34:14;7.90;;;6.17;;
52590;SDS011;38483;42.620;25.394;2022-09-09T06:36:46;10.00;;;6.77;;
52590;SDS011;38483;42.620;25.394;2022-09-09T06:39:13;9.57;;;6.97;;
52590;SDS011;38483;42.620;25.394;2022-09-09T06:41:42;6.50;;;5.27;;
52590;SDS011;38483;42.620;25.394;2022-09-09T06:44:28;6.73;;;5.30;;
52590;SDS011;38483;42.620;25.394;2022-09-09T06:47:03;12.07;;;7.03;;
52590;SDS011;38483;42.620;25.394;2022-09-09T06:49:33;7.60;;;6.43;;
52590;SDS011;38483;42.620;25.394;2022-09-09T06:52:05;7.27;;;4.10;;
52590;SDS011;38483;42.620;25.394;2022-09-09T06:54:33;9.67;;;4.47;;
52590;SDS011;38483;42.620;25.394;2022-09-09T06:57:05;7.83;;;4.90;;
52590;SDS011;38483;42.620;25.394;2022-09-09T06:59:55;6.80;;;4.67;;
52590;SDS011;38483;42.620;25.394;2022-09-09T07:02:23;7.73;;;5.20;;
52590;SDS011;38483;42.620;25.394;2022-09-09T07:04:52;13.33;;;4.87;;
52590;SDS011;38483;42.620;25.394;2022-09-09T07:07:19;17.67;;;11.43;;
52590;SDS011;38483;42.620;25.394;2022-09-09T07:09:49;8.77;;;5.40;;
52590;SDS011;38483;42.620;25.394;2022-09-09T07:12:17;8.80;;;4.43;;
52590;SDS011;38483;42.620;25.394;2022-09-09T07:14:54;8.57;;;6.13;;
52590;SDS011;38483;42.620;25.394;2022-09-09T07:17:24;8.43;;;5.23;;
52590;SDS011;38483;42.620;25.394;2022-09-09T07:19:51;8.23;;;4.67;;
52590;SDS011;38483;42.620;25.394;2022-09-09T07:22:18;4.93;;;3.17;;
52590;SDS011;38483;42.620;25.394;2022-09-09T07:24:46;6.73;;;3.90;;
52590;SDS011;38483;42.620;25.394;2022-09-09T07:27:15;4.37;;;3.50;;
52590;SDS011;38483;42.620;25.394;2022-09-09T07:29:47;5.47;;;3.50;;
52590;SDS011;38483;42.620;25.394;2022-09-09T07:32:14;4.67;;;4.07;;
52590;SDS011;38483;42.620;25.394;2022-09-09T07:34:42;9.17;;;3.97;;
52590;SDS011;38483;42.620;25.394;2022-09-09T07:37:09;8.47;;;4.37;;
52590;SDS011;38483;42.620;25.394;2022-09-09T07:39:41;6.67;;;3.60;;
52590;SDS011;38483;42.620;25.394;2022-09-09T07:42:08;7.73;;;4.20;;
52590;SDS011;38483;42.620;25.394;2022-09-09T07:44:38;8.80;;;4.60;;
52590;SDS011;38483;42.620;25.394;2022-09-09T07:47:13;7.20;;;4.67;;
52590;SDS011;38483;42.620;25.394;2022-09-09T07:49:44;6.70;;;3.50;;
52590;SDS011;38483;42.620;25.394;2022-09-09T07:52:16;6.67;;;3.50;;
52590;SDS011;38483;42.620;25.394;2022-09-09T07:54:49;9.23;;;4.00;;
52590;SDS011;38483;42.620;25.394;2022-09-09T07:57:17;6.73;;;3.83;;
52590;SDS011;38483;42.620;25.394;2022-09-09T07:59:45;4.87;;;3.30;;
52590;SDS011;38483;42.620;25.394;2022-09-09T08:02:13;5.07;;;3.37;;
52590;SDS011;38483;42.620;25.394;2022-09-09T08:04:43;5.97;;;2.77;;
52590;SDS011;38483;42.620;25.394;2022-09-09T08:07:10;4.00;;;3.17;;
52590;SDS011;38483;42.620;25.394;2022-09-09T08:09:45;5.00;;;3.37;;
52590;SDS011;38483;42.620;25.394;2022-09-09T08:12:21;11.83;;;4.83;;
52590;SDS011;38483;42.620;25.394;2022-09-09T08:14:48;6.90;;;4.73;;
52590;SDS011;38483;42.620;25.394;2022-09-09T08:17:15;7.13;;;4.67;;
52590;SDS011;38483;42.620;25.394;2022-09-09T08:19:43;5.37;;;3.50;;
52590;SDS011;38483;42.620;25.394;2022-09-09T08:22:16;5.27;;;3.90;;
52590;SDS011;38483;42.620;25.394;2022-09-09T08:24:44;4.67;;;3.60;;
52590;SDS011;38483;42.620;25.394;2022-09-09T08:27:11;5.20;;;3.53;;
52590;SDS011;38483;42.620;25.394;2022-09-09T08:29:39;4.40;;;2.90;;
52590;SDS011;38483;42.620;25.394;2022-09-09T08:32:07;5.27;;;3.73;;
52590;SDS011;38483;42.620;25.394;2022-09-09T08:34:36;6.10;;;3.50;;
52590;SDS011;38483;42.620;25.394;2022-09-09T08:37:14;8.53;;;5.13;;
52590;SDS011;38483;42.620;25.394;2022-09-09T08:39:43;9.93;;;4.60;;
52590;SDS011;38483;42.620;25.394;2022-09-09T08:51:02;6.63;;;4.83;;
52590;SDS011;38483;42.620;25.394;2022-09-09T08:53:44;4.00;;;3.13;;
52590;SDS011;38483;42.620;25.394;2022-09-09T08:56:24;4.90;;;3.70;;
52590;SDS011;38483;42.620;25.394;2022-09-09T08:58:55;5.60;;;3.87;;
52590;SDS011;38483;42.620;25.394;2022-09-09T09:06:59;5.60;;;4.33;;
52590;SDS011;38483;42.620;25.394;2022-09-09T09:10:01;4.67;;;3.40;;
52590;SDS011;38483;42.620;25.394;2022-09-09T09:12:58;6.60;;;3.60;;
52590;SDS011;38483;42.620;25.394;2022-09-09T09:15:36;8.10;;;4.17;;
52590;SDS011;38483;42.620;25.394;2022-09-09T09:18:07;6.57;;;4.07;;
52590;SDS011;38483;42.620;25.394;2022-09-09T09:20:54;8.80;;;4.23;;
52590;SDS011;38483;42.620;25.394;2022-09-09T09:23:26;6.70;;;3.87;;
52590;SDS011;38483;42.620;25.394;2022-09-09T09:26:06;4.57;;;3.70;;
52590;SDS011;38483;42.620;25.394;2022-09-09T09:28:35;8.37;;;4.70;;
52590;SDS011;38483;42.620;25.394;2022-09-09T09:31:12;4.80;;;3.43;;
52590;SDS011;38483;42.620;25.394;2022-09-09T09:33:49;7.53;;;4.23;;
52590;SDS011;38483;42.620;25.394;2022-09-09T09:36:24;8.33;;;4.43;;
52590;SDS011;38483;42.620;25.394;2022-09-09T09:39:03;5.67;;;4.00;;
52590;SDS011;38483;42.620;25.394;2022-09-09T09:41:52;6.17;;;3.27;;
52590;SDS011;38483;42.620;25.394;2022-09-09T09:44:22;9.03;;;6.47;;
52590;SDS011;38483;42.620;25.394;2022-09-09T09:49:36;6.37;;;3.43;;
52590;SDS011;38483;42.620;25.394;2022-09-09T09:52:04;7.30;;;4.00;;
52590;SDS011;38483;42.620;25.394;2022-09-09T09:54:34;5.73;;;3.43;;
52590;SDS011;38483;42.620;25.394;2022-09-09T09:57:09;6.70;;;3.80;;
52590;SDS011;38483;42.620;25.394;2022-09-09T09:59:41;7.13;;;3.80;;
52590;SDS011;38483;42.620;25.394;2022-09-09T10:02:22;5.67;;;3.67;;
52590;SDS011;38483;42.620;25.394;2022-09-09T10:05:14;5.00;;;3.20;;
52590;SDS011;38483;42.620;25.394;2022-09-09T10:08:01;6.33;;;3.70;;
52590;SDS011;38483;42.620;25.394;2022-09-09T10:19:26;6.43;;;2.83;;
52590;SDS011;38483;42.620;25.394;2022-09-09T10:22:08;5.57;;;3.83;;
52590;SDS011;38483;42.620;25.394;2022-09-09T10:33:19;8.93;;;4.27;;
52590;SDS011;38483;42.620;25.394;2022-09-09T10:36:13;7.13;;;3.50;;
52590;SDS011;38483;42.620;25.394;2022-09-09T10:38:46;4.87;;;3.20;;
52590;SDS011;38483;42.620;25.394;2022-09-09T10:41:37;6.70;;;3.37;;
52590;SDS011;38483;42.620;25.394;2022-09-09T10:44:17;6.17;;;4.30;;
52590;SDS011;38483;42.620;25.394;2022-09-09T10:55:06;5.23;;;3.80;;
52590;SDS011;38483;42.620;25.394;2022-09-09T10:57:40;7.57;;;3.63;;
52590;SDS011;38483;42.620;25.394;2022-09-09T11:00:22;4.50;;;3.13;;
52590;SDS011;38483;42.620;25.394;2022-09-09T11:02:58;5.00;;;3.60;;
52590;SDS011;38483;42.620;25.394;2022-09-09T11:19:24;7.57;;;4.00;;
52590;SDS011;38483;42.620;25.394;2022-09-09T11:22:04;4.53;;;3.50;;
52590;SDS011;38483;42.620;25.394;2022-09-09T11:24:44;5.43;;;3.90;;
52590;SDS011;38483;42.620;25.394;2022-09-09T11:30:02;7.03;;;3.67;;
52590;SDS011;38483;42.620;25.394;2022-09-09T11:38:25;9.20;;;4.50;;
52590;SDS011;38483;42.620;25.394;2022-09-09T11:41:02;3.57;;;3.27;;
52590;SDS011;38483;42.620;25.394;2022-09-09T11:43:37;7.57;;;3.87;;
52590;SDS011;38483;42.620;25.394;2022-09-09T11:46:08;5.33;;;3.67;;
52590;SDS011;38483;42.620;25.394;2022-09-09T11:48:37;4.33;;;3.20;;
52590;SDS011;38483;42.620;25.394;2022-09-09T11:51:24;5.53;;;3.77;;
52590;SDS011;38483;42.620;25.394;2022-09-09T11:53:55;5.17;;;3.60;;
52590;SDS011;38483;42.620;25.394;2022-09-09T11:58:57;3.53;;;3.23;;
52590;SDS011;38483;42.620;25.394;2022-09-09T12:04:06;5.87;;;3.60;;
52590;SDS011;38483;42.620;25.394;2022-09-09T12:11:44;7.87;;;4.17;;
52590;SDS011;38483;42.620;25.394;2022-09-09T12:19:43;4.77;;;3.80;;
52590;SDS011;38483;42.620;25.394;2022-09-09T12:25:16;7.77;;;4.27;;
52590;SDS011;38483;42.620;25.394;2022-09-09T12:28:03;8.93;;;3.93;;
52590;SDS011;38483;42.620;25.394;2022-09-09T12:33:20;7.77;;;4.40;;
52590;SDS011;38483;42.620;25.394;2022-09-09T12:35:55;5.03;;;3.70;;
52590;SDS011;38483;42.620;25.394;2022-09-09T12:38:34;4.33;;;3.93;;
52590;SDS011;38483;42.620;25.394;2022-09-09T12:41:03;6.10;;;3.90;;
52590;SDS011;38483;42.620;25.394;2022-09-09T12:43:31;4.83;;;3.50;;
52590;SDS011;38483;42.620;25.394;2022-09-09T12:46:08;5.17;;;3.90;;
52590;SDS011;38483;42.620;25.394;2022-09-09T12:48:45;7.30;;;4.03;;
52590;SDS011;38483;42.620;25.394;2022-09-09T12:51:19;6.47;;;3.83;;
52590;SDS011;38483;42.620;25.394;2022-09-09T12:53:52;5.83;;;3.80;;
52590;SDS011;38483;42.620;25.394;2022-09-09T12:56:24;6.40;;;4.10;;
52590;SDS011;38483;42.620;25.394;2022-09-09T12:58:54;3.83;;;3.53;;
52590;SDS011;38483;42.620;25.394;2022-09-09T13:01:24;4.30;;;3.90;;
52590;SDS011;38483;42.620;25.394;2022-09-09T13:04:01;5.50;;;3.60;;
52590;SDS011;38483;42.620;25.394;2022-09-09T13:06:30;6.40;;;3.90;;
52590;SDS011;38483;42.620;25.394;2022-09-09T13:09:00;4.40;;;3.43;;
52590;SDS011;38483;42.620;25.394;2022-09-09T13:13:56;5.57;;;3.77;;
52590;SDS011;38483;42.620;25.394;2022-09-09T13:16:31;5.97;;;3.77;;
52590;SDS011;38483;42.620;25.394;2022-09-09T13:19:09;6.83;;;4.13;;
52590;SDS011;38483;42.620;25.394;2022-09-09T13:21:41;7.03;;;3.60;;
52590;SDS011;38483;42.620;25.394;2022-09-09T13:24:26;4.67;;;3.83;;
52590;SDS011;38483;42.620;25.394;2022-09-09T13:27:02;4.70;;;3.80;;
52590;SDS011;38483;42.620;25.394;2022-09-09T13:29:31;4.07;;;3.53;;
52590;SDS011;38483;42.620;25.394;2022-09-09T13:32:05;4.30;;;3.50;;
52590;SDS011;38483;42.620;25.394;2022-09-09T13:34:39;5.70;;;3.87;;
52590;SDS011;38483;42.620;25.394;2022-09-09T13:37:26;5.97;;;3.90;;
52590;SDS011;38483;42.620;25.394;2022-09-09T13:39:59;4.50;;;3.60;;
52590;SDS011;38483;42.620;25.394;2022-09-09T13:42:29;6.37;;;3.90;;
52590;SDS011;38483;42.620;25.394;2022-09-09T13:45:01;7.20;;;4.07;;
52590;SDS011;38483;42.620;25.394;2022-09-09T13:47:34;6.60;;;5.30;;
52590;SDS011;38483;42.620;25.394;2022-09-09T13:50:19;4.17;;;3.77;;
52590;SDS011;38483;42.620;25.394;2022-09-09T13:53:38;4.73;;;3.83;;
52590;SDS011;38483;42.620;25.394;2022-09-09T13:56:59;7.03;;;4.27;;
52590;SDS011;38483;42.620;25.394;2022-09-09T13:59:52;5.47;;;4.40;;
52590;SDS011;38483;42.620;25.394;2022-09-09T14:02:36;4.57;;;3.63;;
52590;SDS011;38483;42.620;25.394;2022-09-09T14:05:05;7.83;;;4.03;;
52590;SDS011;38483;42.620;25.394;2022-09-09T14:07:32;5.17;;;4.10;;
52590;SDS011;38483;42.620;25.394;2022-09-09T14:09:59;4.63;;;3.70;;
52590;SDS011;38483;42.620;25.394;2022-09-09T14:12:28;9.93;;;4.27;;
52590;SDS011;38483;42.620;25.394;2022-09-09T14:14:55;10.03;;;4.20;;
52590;SDS011;38483;42.620;25.394;2022-09-09T14:17:22;6.00;;;3.77;;
52590;SDS011;38483;42.620;25.394;2022-09-09T14:19:51;7.50;;;4.60;;
52590;SDS011;38483;42.620;25.394;2022-09-09T14:22:18;4.93;;;3.63;;
52590;SDS011;38483;42.620;25.394;2022-09-09T14:24:46;3.83;;;3.50;;
52590;SDS011;38483;42.620;25.394;2022-09-09T14:27:13;5.90;;;3.93;;
52590;SDS011;38483;42.620;25.394;2022-09-09T14:29:40;8.23;;;3.97;;
52590;SDS011;38483;42.620;25.394;2022-09-09T14:32:07;5.47;;;3.93;;
52590;SDS011;38483;42.620;25.394;2022-09-09T14:34:38;6.37;;;4.27;;
52590;SDS011;38483;42.620;25.394;2022-09-09T14:37:07;4.90;;;4.00;;
52590;SDS011;38483;42.620;25.394;2022-09-09T14:39:34;7.57;;;4.60;;
52590;SDS011;38483;42.620;25.394;2022-09-09T14:42:01;6.63;;;4.00;;
52590;SDS011;38483;42.620;25.394;2022-09-09T14:44:29;8.67;;;4.80;;
52590;SDS011;38483;42.620;25.394;2022-09-09T14:46:56;7.53;;;4.23;;
52590;SDS011;38483;42.620;25.394;2022-09-09T14:49:23;6.77;;;4.23;;
52590;SDS011;38483;42.620;25.394;2022-09-09T14:51:50;9.80;;;4.93;;
52590;SDS011;38483;42.620;25.394;2022-09-09T14:54:17;6.20;;;4.23;;
52590;SDS011;38483;42.620;25.394;2022-09-09T14:56:44;5.77;;;4.43;;
52590;SDS011;38483;42.620;25.394;2022-09-09T14:59:12;7.63;;;4.53;;
52590;SDS011;38483;42.620;25.394;2022-09-09T15:01:39;5.63;;;4.50;;
52590;SDS011;38483;42.620;25.394;2022-09-09T15:04:10;5.10;;;4.53;;
52590;SDS011;38483;42.620;25.394;2022-09-09T15:06:40;7.47;;;4.67;;
52590;SDS011;38483;42.620;25.394;2022-09-09T15:09:11;7.70;;;4.40;;
52590;SDS011;38483;42.620;25.394;2022-09-09T15:11:38;6.47;;;4.73;;
52590;SDS011;38483;42.620;25.394;2022-09-09T15:14:06;7.17;;;4.43;;
52590;SDS011;38483;42.620;25.394;2022-09-09T15:16:34;5.00;;;4.50;;
52590;SDS011;38483;42.620;25.394;2022-09-09T15:19:02;7.83;;;4.27;;
52590;SDS011;38483;42.620;25.394;2022-09-09T15:21:31;7.07;;;4.33;;
52590;SDS011;38483;42.620;25.394;2022-09-09T15:24:00;8.50;;;3.63;;
52590;SDS011;38483;42.620;25.394;2022-09-09T15:26:27;6.43;;;4.40;;
52590;SDS011;38483;42.620;25.394;2022-09-09T15:28:54;13.87;;;4.40;;
52590;SDS011;38483;42.620;25.394;2022-09-09T15:31:22;6.77;;;4.53;;
52590;SDS011;38483;42.620;25.394;2022-09-09T15:33:52;9.97;;;4.87;;
52590;SDS011;38483;42.620;25.394;2022-09-09T15:36:30;7.10;;;4.57;;
52590;SDS011;38483;42.620;25.394;2022-09-09T15:38:59;5.77;;;4.57;;
52590;SDS011;38483;42.620;25.394;2022-09-09T15:41:27;5.23;;;3.90;;
52590;SDS011;38483;42.620;25.394;2022-09-09T15:43:56;8.87;;;4.57;;
52590;SDS011;38483;42.620;25.394;2022-09-09T15:46:30;10.13;;;4.47;;
52590;SDS011;38483;42.620;25.394;2022-09-09T15:49:15;9.83;;;4.70;;
52590;SDS011;38483;42.620;25.394;2022-09-09T15:51:44;9.47;;;6.23;;
52590;SDS011;38483;42.620;25.394;2022-09-09T15:54:16;8.77;;;5.43;;
52590;SDS011;38483;42.620;25.394;2022-09-09T15:56:45;11.53;;;7.13;;
52590;SDS011;38483;42.620;25.394;2022-09-09T15:59:15;11.20;;;5.67;;
52590;SDS011;38483;42.620;25.394;2022-09-09T16:01:42;10.87;;;5.97;;
52590;SDS011;38483;42.620;25.394;2022-09-09T16:04:10;8.90;;;4.97;;
52590;SDS011;38483;42.620;25.394;2022-09-09T16:06:38;6.77;;;4.83;;
52590;SDS011;38483;42.620;25.394;2022-09-09T16:09:06;11.93;;;5.87;;
52590;SDS011;38483;42.620;25.394;2022-09-09T16:11:35;6.80;;;4.40;;
52590;SDS011;38483;42.620;25.394;2022-09-09T16:14:03;9.20;;;5.53;;
52590;SDS011;38483;42.620;25.394;2022-09-09T16:16:33;8.60;;;5.20;;
52590;SDS011;38483;42.620;25.394;2022-09-09T16:19:05;11.93;;;5.73;;
52590;SDS011;38483;42.620;25.394;2022-09-09T16:21:35;7.90;;;5.27;;
52590;SDS011;38483;42.620;25.394;2022-09-09T16:24:55;11.77;;;6.10;;
52590;SDS011;38483;42.620;25.394;2022-09-09T16:28:16;9.80;;;4.93;;
52590;SDS011;38483;42.620;25.394;2022-09-09T16:31:38;18.73;;;12.23;;
52590;SDS011;38483;42.620;25.394;2022-09-09T16:34:59;10.40;;;7.37;;
52590;SDS011;38483;42.620;25.394;2022-09-09T16:38:20;7.07;;;5.63;;
52590;SDS011;38483;42.620;25.394;2022-09-09T16:41:41;20.27;;;8.83;;
52590;SDS011;38483;42.620;25.394;2022-09-09T16:45:01;7.83;;;4.63;;
52590;SDS011;38483;42.620;25.394;2022-09-09T16:48:22;8.73;;;4.73;;
52590;SDS011;38483;42.620;25.394;2022-09-09T16:51:44;7.40;;;4.57;;
52590;SDS011;38483;42.620;25.394;2022-09-09T16:55:03;10.70;;;8.17;;
52590;SDS011;38483;42.620;25.394;2022-09-09T16:58:24;7.60;;;4.13;;
52590;SDS011;38483;42.620;25.394;2022-09-09T17:01:46;5.73;;;4.10;;
52590;SDS011;38483;42.620;25.394;2022-09-09T17:05:06;7.67;;;6.33;;
52590;SDS011;38483;42.620;25.394;2022-09-09T17:08:27;10.10;;;5.13;;
52590;SDS011;38483;42.620;25.394;2022-09-09T17:11:47;9.20;;;5.03;;
52590;SDS011;38483;42.620;25.394;2022-09-09T17:15:08;13.17;;;5.10;;
52590;SDS011;38483;42.620;25.394;2022-09-09T17:18:28;14.13;;;8.60;;
52590;SDS011;38483;42.620;25.394;2022-09-09T17:21:52;11.67;;;6.33;;
52590;SDS011;38483;42.620;25.394;2022-09-09T17:25:13;14.40;;;6.70;;
52590;SDS011;38483;42.620;25.394;2022-09-09T17:28:34;9.30;;;6.77;;
52590;SDS011;38483;42.620;25.394;2022-09-09T17:31:54;11.87;;;5.43;;
52590;SDS011;38483;42.620;25.394;2022-09-09T17:35:16;13.40;;;5.93;;
52590;SDS011;38483;42.620;25.394;2022-09-09T17:38:36;9.60;;;5.27;;
52590;SDS011;38483;42.620;25.394;2022-09-09T17:41:57;10.97;;;5.43;;